Time;durP1;ratioP1;P1;durP2;ratioP2;P2;SDS_P1;SDS_P2;PMS_P1;PMS_P2;Temp;Humidity;BMP_temperature;BMP_pressure;BME280_temperature;BME280_humidity;BME280_pressure;Samples;Min_cycle;Max_cycle;Signal;HPM_P1;HPM_P2
2022/04/19 00:01:44;;;;;;;6.43;3.22;;;;;;;;;;5051412;28;20049;-73
2022/04/19 00:04:11;;;;;;;5.05;3.08;;;;;;;;;;5052950;28;20041;-73
2022/04/19 00:06:37;;;;;;;8.05;3.25;;;;;;;;;;5052784;28;20025;-73
2022/04/19 00:09:04;;;;;;;7.63;3.20;;;;;;;;;;5052845;28;20021;-73
2022/04/19 00:11:30;;;;;;;6.03;3.67;;;;;;;;;;5052840;28;20021;-74
2022/04/19 00:13:56;;;;;;;6.13;3.38;;;;;;;;;;5052716;28;20068;-73
2022/04/19 00:16:22;;;;;;;6.60;3.50;;;;;;;;;;5052661;28;20037;-73
2022/04/19 00:18:48;;;;;;;5.40;3.20;;;;;;;;;;5052756;28;20027;-73
2022/04/19 00:21:15;;;;;;;6.28;3.30;;;;;;;;;;5052513;28;20021;-73
2022/04/19 00:23:41;;;;;;;8.48;3.78;;;;;;;;;;5052499;28;20802;-73
2022/04/19 00:26:07;;;;;;;6.32;2.90;;;;;;;;;;5052254;28;20033;-73
2022/04/19 00:28:33;;;;;;;10.55;3.30;;;;;;;;;;5052335;28;20044;-73
2022/04/19 00:30:59;;;;;;;7.22;3.30;;;;;;;;;;5052427;28;20025;-74
2022/04/19 00:33:27;;;;;;;6.50;3.30;;;;;;;;;;5052450;28;20479;-73
2022/04/19 00:35:53;;;;;;;8.65;3.78;;;;;;;;;;5052192;28;20502;-73
2022/04/19 00:38:19;;;;;;;8.50;3.28;;;;;;;;;;5051026;28;20029;-73
2022/04/19 00:40:45;;;;;;;7.68;3.28;;;;;;;;;;5052130;28;20021;-73
2022/04/19 00:43:11;;;;;;;6.90;3.75;;;;;;;;;;5052204;28;20032;-73
2022/04/19 00:45:37;;;;;;;7.07;3.00;;;;;;;;;;5052174;28;20028;-73
2022/04/19 00:48:03;;;;;;;7.65;3.47;;;;;;;;;;5052247;28;20043;-73
2022/04/19 00:50:30;;;;;;;9.10;3.58;;;;;;;;;;5050311;28;20071;-73
2022/04/19 00:52:56;;;;;;;5.88;3.33;;;;;;;;;;5052062;28;20494;-73
2022/04/19 00:55:22;;;;;;;8.15;3.47;;;;;;;;;;5052079;28;20033;-73
2022/04/19 00:57:50;;;;;;;11.63;4.53;;;;;;;;;;5051949;28;20033;-73
2022/04/19 01:00:16;;;;;;;8.77;3.47;;;;;;;;;;5052126;28;20021;-73
2022/04/19 01:02:42;;;;;;;12.13;3.75;;;;;;;;;;5051988;28;20049;-73
2022/04/19 01:05:09;;;;;;;6.50;3.40;;;;;;;;;;5052009;28;20412;-73
2022/04/19 01:07:38;;;;;;;5.05;3.63;;;;;;;;;;5051848;28;20029;-73
2022/04/19 01:10:05;;;;;;;8.10;3.50;;;;;;;;;;5051841;28;20017;-74
2022/04/19 01:15:16;;;;;;;7.18;3.95;;;;;;;;;;5051716;28;20085;-73
2022/04/19 01:17:42;;;;;;;6.40;3.63;;;;;;;;;;5051800;28;20021;-73
2022/04/19 01:20:10;;;;;;;6.05;3.50;;;;;;;;;;5051754;28;20033;-73
2022/04/19 01:22:39;;;;;;;6.43;3.40;;;;;;;;;;5051657;28;20096;-74
2022/04/19 01:25:06;;;;;;;7.05;3.08;;;;;;;;;;5051686;28;20032;-73
2022/04/19 01:27:32;;;;;;;6.72;3.40;;;;;;;;;;5051504;28;20090;-73
2022/04/19 01:30:02;;;;;;;6.50;3.60;;;;;;;;;;5051671;28;20045;-73
2022/04/19 01:32:28;;;;;;;6.70;3.78;;;;;;;;;;5051649;28;20453;-73
2022/04/19 01:35:06;;;;;;;8.02;3.72;;;;;;;;;;5051713;28;20095;-73
2022/04/19 01:37:34;;;;;;;9.15;3.50;;;;;;;;;;5051579;28;20029;-74
2022/04/19 01:42:59;;;;;;;6.47;3.60;;;;;;;;;;5029113;28;20285;-73
2022/04/19 01:45:27;;;;;;;6.32;3.33;;;;;;;;;;5029253;28;20112;-73
2022/04/19 01:47:53;;;;;;;10.45;4.45;;;;;;;;;;5028827;28;20516;-73
2022/04/19 01:50:20;;;;;;;8.85;4.25;;;;;;;;;;5029153;28;20026;-73
2022/04/19 01:52:47;;;;;;;7.43;4.32;;;;;;;;;;5029118;28;20065;-73
2022/04/19 01:55:14;;;;;;;6.95;4.20;;;;;;;;;;5028990;28;20041;-73
2022/04/19 01:57:42;;;;;;;8.23;4.40;;;;;;;;;;5029027;28;20029;-73
2022/04/19 02:00:08;;;;;;;6.65;3.95;;;;;;;;;;5029018;28;20505;-73
2022/04/19 02:02:34;;;;;;;9.43;4.00;;;;;;;;;;5030459;28;20108;-73
2022/04/19 02:05:00;;;;;;;8.43;4.38;;;;;;;;;;5032986;28;20593;-73
2022/04/19 02:07:26;;;;;;;8.60;4.35;;;;;;;;;;5032956;28;20120;-73
2022/04/19 02:09:52;;;;;;;9.40;4.20;;;;;;;;;;5032881;28;20560;-73
2022/04/19 02:12:18;;;;;;;7.88;3.85;;;;;;;;;;5032817;28;20349;-73
2022/04/19 02:14:45;;;;;;;8.48;4.40;;;;;;;;;;5032729;28;20021;-73
2022/04/19 02:17:11;;;;;;;8.60;3.92;;;;;;;;;;5032790;28;20037;-73
2022/04/19 02:19:37;;;;;;;8.52;4.55;;;;;;;;;;5046630;28;20041;-74
2022/04/19 02:22:09;;;;;;;8.55;4.82;;;;;;;;;;5054965;28;20032;-73
2022/04/19 02:24:35;;;;;;;7.10;4.47;;;;;;;;;;5053468;28;20021;-73
2022/04/19 02:27:02;;;;;;;9.85;4.40;;;;;;;;;;5054779;28;20036;-73
2022/04/19 02:29:28;;;;;;;7.70;4.30;;;;;;;;;;5054773;28;20426;-73
2022/04/19 02:31:54;;;;;;;9.60;4.10;;;;;;;;;;5054805;28;20025;-74
2022/04/19 02:34:21;;;;;;;11.07;4.43;;;;;;;;;;5054762;28;20027;-73
2022/04/19 02:36:47;;;;;;;8.23;4.20;;;;;;;;;;5054608;28;20029;-73
2022/04/19 02:39:13;;;;;;;8.57;4.43;;;;;;;;;;5054651;28;20025;-73
2022/04/19 02:41:39;;;;;;;10.10;4.63;;;;;;;;;;5049759;28;20032;-74
2022/04/19 02:44:08;;;;;;;13.32;4.80;;;;;;;;;;5034683;28;20021;-73
2022/04/19 02:46:35;;;;;;;8.80;4.45;;;;;;;;;;5034688;28;20028;-73
2022/04/19 02:49:05;;;;;;;9.02;4.65;;;;;;;;;;5034495;28;20111;-73
2022/04/19 02:51:33;;;;;;;8.80;4.97;;;;;;;;;;5034477;28;20032;-73
2022/04/19 02:54:00;;;;;;;7.70;4.53;;;;;;;;;;5034417;28;20380;-73
2022/04/19 02:56:26;;;;;;;9.88;4.35;;;;;;;;;;5034354;28;20032;-73
2022/04/19 02:58:52;;;;;;;10.88;5.25;;;;;;;;;;5034408;28;20462;-73
2022/04/19 03:01:18;;;;;;;7.75;4.70;;;;;;;;;;5034200;28;20057;-73
2022/04/19 03:03:45;;;;;;;8.48;4.85;;;;;;;;;;5034337;28;20032;-73
2022/04/19 03:06:11;;;;;;;8.35;4.80;;;;;;;;;;5034057;28;20033;-73
2022/04/19 03:08:37;;;;;;;10.75;4.82;;;;;;;;;;5034126;28;20028;-74
2022/04/19 03:11:03;;;;;;;8.65;4.72;;;;;;;;;;5033996;28;20583;-73
2022/04/19 03:13:31;;;;;;;9.63;4.93;;;;;;;;;;5034992;28;20473;-73
2022/04/19 03:15:58;;;;;;;8.82;4.43;;;;;;;;;;5053841;28;20032;-73
2022/04/19 03:18:24;;;;;;;8.75;4.93;;;;;;;;;;5053965;28;20142;-73
2022/04/19 03:20:50;;;;;;;7.70;4.38;;;;;;;;;;5053648;28;20033;-73
2022/04/19 03:28:45;;;;;;;11.43;3.85;;;;;;;;;;5053954;28;20451;-73
2022/04/19 03:31:12;;;;;;;7.05;3.42;;;;;;;;;;5053594;28;20117;-73
2022/04/19 03:33:39;;;;;;;6.88;3.28;;;;;;;;;;5053785;28;20373;-73
2022/04/19 03:36:05;;;;;;;6.30;3.60;;;;;;;;;;5053439;28;20071;-73
2022/04/19 03:38:31;;;;;;;9.57;3.60;;;;;;;;;;5053739;28;20028;-73
2022/04/19 03:40:57;;;;;;;7.43;3.40;;;;;;;;;;5053481;28;20028;-73
2022/04/19 03:43:23;;;;;;;7.20;4.05;;;;;;;;;;5053534;28;20028;-73
2022/04/19 03:45:49;;;;;;;10.98;3.95;;;;;;;;;;5053529;28;20021;-73
2022/04/19 03:48:15;;;;;;;7.88;3.92;;;;;;;;;;5053546;28;20024;-73
2022/04/19 03:50:42;;;;;;;7.65;4.20;;;;;;;;;;5053265;28;20530;-73
2022/04/19 03:53:08;;;;;;;8.90;4.60;;;;;;;;;;5053425;28;20383;-73
2022/04/19 03:55:34;;;;;;;8.18;4.47;;;;;;;;;;5053646;28;20043;-73
2022/04/19 03:58:02;;;;;;;9.32;4.57;;;;;;;;;;5053170;28;20041;-73
2022/04/19 04:00:28;;;;;;;9.88;4.03;;;;;;;;;;5053027;28;20061;-73
2022/04/19 04:02:55;;;;;;;7.10;4.45;;;;;;;;;;5053090;28;20531;-73
2022/04/19 04:05:24;;;;;;;8.23;4.70;;;;;;;;;;5051497;28;20031;-74
2022/04/19 04:07:50;;;;;;;7.68;4.38;;;;;;;;;;5052747;28;20387;-73
2022/04/19 04:10:16;;;;;;;9.52;4.55;;;;;;;;;;5052909;28;20025;-73
2022/04/19 04:12:42;;;;;;;8.65;4.70;;;;;;;;;;5052938;28;20092;-74
2022/04/19 04:15:08;;;;;;;10.90;5.30;;;;;;;;;;5052763;28;20033;-73
2022/04/19 04:17:34;;;;;;;7.85;4.75;;;;;;;;;;5052949;28;20383;-73
2022/04/19 04:20:01;;;;;;;10.35;4.85;;;;;;;;;;5052832;28;20094;-73
2022/04/19 04:22:27;;;;;;;9.95;5.13;;;;;;;;;;5052782;28;20032;-73
2022/04/19 04:24:53;;;;;;;11.05;4.82;;;;;;;;;;5052429;28;20021;-73
2022/04/19 04:27:19;;;;;;;13.50;5.30;;;;;;;;;;5052681;28;20458;-74
2022/04/19 04:29:45;;;;;;;11.50;5.25;;;;;;;;;;5052568;28;20032;-73
2022/04/19 04:32:11;;;;;;;8.68;4.65;;;;;;;;;;5052636;28;20382;-73
2022/04/19 04:34:38;;;;;;;12.57;5.70;;;;;;;;;;5052395;28;20040;-73
2022/04/19 04:37:04;;;;;;;13.23;5.20;;;;;;;;;;5052324;28;20082;-73
2022/04/19 04:39:30;;;;;;;12.40;5.43;;;;;;;;;;5052342;28;20024;-73
2022/04/19 04:41:56;;;;;;;9.60;4.78;;;;;;;;;;5052043;28;20052;-73
2022/04/19 04:44:22;;;;;;;9.75;5.13;;;;;;;;;;5052385;28;20029;-73
2022/04/19 04:49:35;;;;;;;11.18;5.70;;;;;;;;;;5052199;28;20178;-73
2022/04/19 04:52:02;;;;;;;13.77;5.80;;;;;;;;;;5052138;28;20090;-73
2022/04/19 04:54:28;;;;;;;13.30;6.70;;;;;;;;;;5050770;28;20451;-73
2022/04/19 04:56:54;;;;;;;12.77;6.15;;;;;;;;;;5051902;28;20029;-73
2022/04/19 04:59:20;;;;;;;13.45;6.38;;;;;;;;;;5052084;28;20542;-73
2022/04/19 05:01:46;;;;;;;10.63;5.85;;;;;;;;;;5051954;28;20048;-73
2022/04/19 05:04:12;;;;;;;12.65;6.30;;;;;;;;;;5052027;28;20784;-73
2022/04/19 05:06:38;;;;;;;14.15;6.43;;;;;;;;;;5051947;28;20025;-73
2022/04/19 05:09:05;;;;;;;16.42;6.72;;;;;;;;;;5050521;28;20104;-73
2022/04/19 05:11:31;;;;;;;15.43;6.00;;;;;;;;;;5051833;28;20060;-73
2022/04/19 05:13:57;;;;;;;13.27;5.80;;;;;;;;;;5051711;28;20059;-73
2022/04/19 05:16:23;;;;;;;14.00;5.80;;;;;;;;;;5051934;28;20025;-73
2022/04/19 05:18:49;;;;;;;13.73;7.03;;;;;;;;;;5051918;28;20382;-73
2022/04/19 05:21:15;;;;;;;15.23;6.93;;;;;;;;;;5051706;28;20029;-73
2022/04/19 05:23:41;;;;;;;12.45;5.70;;;;;;;;;;5051752;28;20025;-73
2022/04/19 05:26:07;;;;;;;15.23;6.20;;;;;;;;;;5051601;28;20090;-73
2022/04/19 05:28:33;;;;;;;13.35;5.70;;;;;;;;;;5051651;28;20082;-73
2022/04/19 05:31:00;;;;;;;12.80;6.30;;;;;;;;;;5051664;28;20025;-73
2022/04/19 05:33:26;;;;;;;14.80;6.15;;;;;;;;;;5051714;28;20017;-73
2022/04/19 05:35:52;;;;;;;16.70;6.68;;;;;;;;;;5051512;28;20025;-73
2022/04/19 05:38:18;;;;;;;13.00;5.78;;;;;;;;;;5054511;28;20036;-73
2022/04/19 05:40:44;;;;;;;13.52;6.53;;;;;;;;;;5055628;28;20032;-73
2022/04/19 05:43:10;;;;;;;14.50;6.03;;;;;;;;;;5055708;28;20401;-73
2022/04/19 05:45:36;;;;;;;10.63;5.65;;;;;;;;;;5055611;28;20048;-74
2022/04/19 05:48:02;;;;;;;9.18;5.43;;;;;;;;;;5055748;28;20336;-73
2022/04/19 05:50:28;;;;;;;10.90;6.35;;;;;;;;;;5055660;28;20496;-73
2022/04/19 05:52:54;;;;;;;14.38;6.28;;;;;;;;;;5054205;28;20021;-74
2022/04/19 05:55:20;;;;;;;10.13;5.78;;;;;;;;;;5055813;28;20513;-73
2022/04/19 05:57:46;;;;;;;15.70;6.40;;;;;;;;;;5055365;28;20021;-74
2022/04/19 06:00:12;;;;;;;11.68;6.43;;;;;;;;;;5055319;28;20017;-73
2022/04/19 06:05:23;;;;;;;9.73;5.50;;;;;;;;;;5055346;28;20414;-73
2022/04/19 06:07:52;;;;;;;13.80;6.22;;;;;;;;;;5055139;28;20020;-73
2022/04/19 06:10:18;;;;;;;11.95;6.43;;;;;;;;;;5055052;28;20074;-73
2022/04/19 06:12:44;;;;;;;11.25;5.90;;;;;;;;;;5055111;28;20025;-74
2022/04/19 06:15:11;;;;;;;15.82;5.50;;;;;;;;;;5055036;28;20028;-74
2022/04/19 06:17:38;;;;;;;10.15;5.68;;;;;;;;;;5055166;28;20463;-73
2022/04/19 06:20:05;;;;;;;10.40;5.75;;;;;;;;;;5055057;28;20044;-73
2022/04/19 06:22:31;;;;;;;10.43;5.68;;;;;;;;;;5054687;28;20106;-73
2022/04/19 06:24:58;;;;;;;12.18;5.57;;;;;;;;;;5054749;28;20025;-74
2022/04/19 06:27:25;;;;;;;10.93;6.20;;;;;;;;;;5054770;28;20383;-73
2022/04/19 06:29:52;;;;;;;13.05;5.82;;;;;;;;;;5054649;28;20057;-73
2022/04/19 06:32:19;;;;;;;14.23;5.65;;;;;;;;;;5054725;28;20371;-73
2022/04/19 06:34:45;;;;;;;20.83;6.00;;;;;;;;;;5054819;28;20025;-73
2022/04/19 06:37:11;;;;;;;12.23;6.05;;;;;;;;;;5054589;28;20029;-73
2022/04/19 06:39:37;;;;;;;9.65;5.75;;;;;;;;;;5054664;28;20029;-73
2022/04/19 06:42:03;;;;;;;10.95;5.57;;;;;;;;;;5054468;28;20094;-74
2022/04/19 06:44:29;;;;;;;10.73;5.65;;;;;;;;;;5054604;28;20053;-73
2022/04/19 06:46:56;;;;;;;12.20;5.93;;;;;;;;;;5054656;28;20040;-73
2022/04/19 06:49:22;;;;;;;10.05;5.72;;;;;;;;;;5054349;28;20040;-73
2022/04/19 06:51:49;;;;;;;8.60;5.25;;;;;;;;;;5054436;28;20025;-73
2022/04/19 06:54:15;;;;;;;11.45;5.20;;;;;;;;;;5054528;28;20425;-73
2022/04/19 06:56:42;;;;;;;8.80;5.07;;;;;;;;;;5054276;28;20060;-73
2022/04/19 06:59:11;;;;;;;9.82;5.35;;;;;;;;;;5054297;28;20048;-73
2022/04/19 07:01:39;;;;;;;11.85;5.25;;;;;;;;;;5054114;28;20049;-73
2022/04/19 07:04:05;;;;;;;12.18;5.40;;;;;;;;;;5054235;28;20511;-73
2022/04/19 07:06:31;;;;;;;9.02;4.57;;;;;;;;;;5054124;28;20040;-73
2022/04/19 07:08:58;;;;;;;9.30;4.32;;;;;;;;;;5053945;28;20025;-73
2022/04/19 07:11:24;;;;;;;11.43;6.30;;;;;;;;;;5053953;28;20438;-73
2022/04/19 07:13:51;;;;;;;7.50;4.53;;;;;;;;;;5049514;28;20444;-73
2022/04/19 07:16:17;;;;;;;12.88;4.60;;;;;;;;;;5033880;28;20029;-73
2022/04/19 07:18:43;;;;;;;7.20;4.10;;;;;;;;;;5034136;28;20547;-73
2022/04/19 07:26:38;;;;;;;7.28;4.07;;;;;;;;;;5053584;28;20178;-73
2022/04/19 07:29:05;;;;;;;8.40;3.88;;;;;;;;;;5053501;28;20111;-73
2022/04/19 07:31:31;;;;;;;6.97;3.55;;;;;;;;;;5053645;28;20043;-73
2022/04/19 07:33:57;;;;;;;9.00;3.67;;;;;;;;;;5053676;28;20021;-73
2022/04/19 07:36:23;;;;;;;8.35;3.50;;;;;;;;;;5053637;28;20052;-73
2022/04/19 07:38:50;;;;;;;5.82;3.60;;;;;;;;;;5053714;28;20108;-73
2022/04/19 07:41:17;;;;;;;6.43;3.67;;;;;;;;;;5053344;28;20082;-73
2022/04/19 07:43:44;;;;;;;7.65;3.30;;;;;;;;;;5053597;28;20021;-73
2022/04/19 07:46:10;;;;;;;5.90;3.25;;;;;;;;;;5051991;28;20071;-73
2022/04/19 07:48:37;;;;;;;5.45;3.17;;;;;;;;;;5052031;28;20395;-73
2022/04/19 07:51:03;;;;;;;5.70;3.42;;;;;;;;;;5053300;28;20037;-73
2022/04/19 07:53:29;;;;;;;7.40;3.15;;;;;;;;;;5053464;28;20017;-73
2022/04/19 07:55:57;;;;;;;7.75;3.53;;;;;;;;;;5053605;28;20085;-73
2022/04/19 07:58:23;;;;;;;6.55;3.60;;;;;;;;;;5053288;28;20111;-74
2022/04/19 08:00:50;;;;;;;7.25;3.70;;;;;;;;;;5052546;28;20610;-73
2022/04/19 08:03:16;;;;;;;5.28;3.20;;;;;;;;;;5053209;28;20128;-73
2022/04/19 08:05:42;;;;;;;6.22;3.20;;;;;;;;;;5053021;28;20040;-73
2022/04/19 08:08:08;;;;;;;6.55;3.53;;;;;;;;;;5053067;28;20048;-73
2022/04/19 08:10:34;;;;;;;11.98;3.83;;;;;;;;;;5053014;28;20017;-73
2022/04/19 08:13:01;;;;;;;7.88;4.10;;;;;;;;;;5052913;28;20616;-73
2022/04/19 08:15:27;;;;;;;9.77;4.45;;;;;;;;;;5052795;28;20025;-74
2022/04/19 08:17:53;;;;;;;6.40;3.50;;;;;;;;;;5052917;28;20036;-74
2022/04/19 08:20:19;;;;;;;7.50;3.60;;;;;;;;;;5052754;28;20114;-73
2022/04/19 08:22:45;;;;;;;8.57;3.72;;;;;;;;;;5052748;28;20033;-73
2022/04/19 08:25:11;;;;;;;6.47;3.70;;;;;;;;;;5052665;28;20053;-74
2022/04/19 08:27:40;;;;;;;7.90;3.28;;;;;;;;;;5052639;28;20049;-74
2022/04/19 08:30:08;;;;;;;7.88;3.55;;;;;;;;;;5052656;28;20028;-74
2022/04/19 08:32:34;;;;;;;9.15;3.60;;;;;;;;;;5052605;28;20013;-73
2022/04/19 08:35:00;;;;;;;8.80;3.83;;;;;;;;;;5051173;28;20508;-73
2022/04/19 08:37:30;;;;;;;8.63;4.05;;;;;;;;;;5052469;28;20025;-73
2022/04/19 08:39:56;;;;;;;9.75;3.92;;;;;;;;;;5052433;28;20634;-73
2022/04/19 08:42:22;;;;;;;8.48;4.40;;;;;;;;;;5050811;28;20037;-73
2022/04/19 08:44:48;;;;;;;7.10;4.15;;;;;;;;;;5052429;28;20415;-73
2022/04/19 08:47:15;;;;;;;8.23;4.07;;;;;;;;;;5052366;28;20025;-73
2022/04/19 08:49:42;;;;;;;7.07;3.47;;;;;;;;;;5052174;28;20120;-73
2022/04/19 08:52:11;;;;;;;7.60;4.03;;;;;;;;;;5052196;28;20032;-74
2022/04/19 08:57:31;;;;;;;7.55;3.50;;;;;;;;;;5051881;28;20044;-74
2022/04/19 08:59:57;;;;;;;7.07;4.00;;;;;;;;;;5052106;28;20036;-73
2022/04/19 09:02:25;;;;;;;7.05;4.38;;;;;;;;;;5052125;28;20049;-73
2022/04/19 09:04:52;;;;;;;8.73;3.80;;;;;;;;;;5052126;28;20057;-73
2022/04/19 09:07:18;;;;;;;6.75;4.13;;;;;;;;;;5052049;28;20025;-74
2022/04/19 09:09:57;;;;;;;6.78;3.83;;;;;;;;;;5051893;28;20029;-74
2022/04/19 09:12:23;;;;;;;8.38;3.92;;;;;;;;;;5051131;28;20021;-73
2022/04/19 09:15:06;;;;;;;9.00;3.55;;;;;;;;;;5051726;28;20027;-73
2022/04/19 09:17:33;;;;;;;8.05;4.10;;;;;;;;;;5051989;28;20308;-73
2022/04/19 09:20:09;;;;;;;8.65;4.05;;;;;;;;;;5051790;28;20020;-73
2022/04/19 09:22:37;;;;;;;9.02;3.60;;;;;;;;;;5051736;28;20107;-73
2022/04/19 09:25:15;;;;;;;8.30;3.88;;;;;;;;;;5051832;28;20506;-73
2022/04/19 09:27:42;;;;;;;8.35;3.92;;;;;;;;;;5051660;28;20033;-73
2022/04/19 09:30:16;;;;;;;6.05;3.47;;;;;;;;;;5051659;28;20052;-73
2022/04/19 09:32:43;;;;;;;7.53;3.80;;;;;;;;;;5031864;28;20372;-74
2022/04/19 09:35:09;;;;;;;6.05;3.42;;;;;;;;;;5031819;28;20391;-73
2022/04/19 09:37:35;;;;;;;6.97;3.60;;;;;;;;;;5031732;28;20045;-73
2022/04/19 09:40:01;;;;;;;8.55;3.92;;;;;;;;;;5031624;28;20044;-73
2022/04/19 09:42:27;;;;;;;7.38;3.65;;;;;;;;;;5043317;28;20033;-74
2022/04/19 09:44:53;;;;;;;8.02;3.65;;;;;;;;;;5051765;28;20033;-74
2022/04/19 09:47:20;;;;;;;6.25;3.78;;;;;;;;;;5051712;28;20021;-74
2022/04/19 09:49:49;;;;;;;8.18;3.45;;;;;;;;;;5051435;28;20025;-73
2022/04/19 09:52:21;;;;;;;6.45;4.00;;;;;;;;;;5051461;28;20036;-74
2022/04/19 09:55:08;;;;;;;7.90;3.50;;;;;;;;;;5051709;28;20018;-74
2022/04/19 09:57:36;;;;;;;9.73;3.63;;;;;;;;;;5051328;28;20036;-73
2022/04/19 10:00:03;;;;;;;8.60;4.10;;;;;;;;;;5051508;28;20166;-73
2022/04/19 10:08:11;;;;;;;8.13;3.50;;;;;;;;;;5029297;28;20451;-73
2022/04/19 10:10:37;;;;;;;7.85;4.00;;;;;;;;;;5029013;28;20124;-74
2022/04/19 10:13:03;;;;;;;10.18;4.20;;;;;;;;;;5028999;28;20048;-74
2022/04/19 10:15:31;;;;;;;8.55;3.78;;;;;;;;;;5028862;28;20527;-74
2022/04/19 10:17:57;;;;;;;7.93;4.00;;;;;;;;;;5029105;28;20037;-74
2022/04/19 10:20:33;;;;;;;8.02;3.75;;;;;;;;;;5028907;28;20030;-74
2022/04/19 10:23:03;;;;;;;8.70;4.03;;;;;;;;;;5029380;28;20758;-74
2022/04/19 10:25:40;;;;;;;8.82;4.45;;;;;;;;;;5032638;28;20464;-73
2022/04/19 10:28:08;;;;;;;8.45;4.22;;;;;;;;;;5032642;28;20056;-74
2022/04/19 10:30:36;;;;;;;7.05;3.75;;;;;;;;;;5032484;28;20068;-74
2022/04/19 10:33:02;;;;;;;9.65;3.42;;;;;;;;;;5016072;28;20124;-74
2022/04/19 10:35:28;;;;;;;7.97;4.13;;;;;;;;;;5032656;28;20033;-74
2022/04/19 10:38:13;;;;;;;8.23;4.22;;;;;;;;;;5032486;28;20438;-74
2022/04/19 10:40:53;;;;;;;14.50;3.83;;;;;;;;;;5015825;28;20404;-74
2022/04/19 10:43:20;;;;;;;7.68;3.95;;;;;;;;;;5051911;28;20109;-74
2022/04/19 10:45:47;;;;;;;11.65;4.30;;;;;;;;;;5054588;28;20017;-74
2022/04/19 10:48:14;;;;;;;7.63;3.88;;;;;;;;;;5054436;28;20033;-74
2022/04/19 10:50:44;;;;;;;6.38;3.53;;;;;;;;;;5054463;28;20024;-74
2022/04/19 10:53:10;;;;;;;7.32;3.97;;;;;;;;;;5054475;28;20364;-74
2022/04/19 10:55:37;;;;;;;7.50;3.65;;;;;;;;;;5054726;28;20071;-74
2022/04/19 10:58:06;;;;;;;7.53;3.78;;;;;;;;;;5054363;28;20078;-73
2022/04/19 11:00:34;;;;;;;11.15;3.80;;;;;;;;;;5054310;28;20029;-73
2022/04/19 11:03:00;;;;;;;6.03;3.47;;;;;;;;;;5054135;28;20068;-74
2022/04/19 11:05:41;;;;;;;7.25;3.80;;;;;;;;;;5054285;28;20100;-74
2022/04/19 11:08:25;;;;;;;9.90;4.10;;;;;;;;;;5054049;28;20079;-74
2022/04/19 11:10:51;;;;;;;6.95;3.63;;;;;;;;;;5054134;28;20037;-74
2022/04/19 11:13:19;;;;;;;9.02;3.30;;;;;;;;;;5054225;28;20044;-74
2022/04/19 11:15:57;;;;;;;7.85;3.60;;;;;;;;;;5053961;28;20417;-74
2022/04/19 11:18:24;;;;;;;6.18;3.50;;;;;;;;;;5054098;28;20029;-74
2022/04/19 11:20:51;;;;;;;6.22;3.38;;;;;;;;;;5053688;28;20029;-74
2022/04/19 11:23:18;;;;;;;10.25;4.45;;;;;;;;;;5053784;28;20021;-74
2022/04/19 11:25:45;;;;;;;8.50;4.20;;;;;;;;;;5053530;28;20029;-74
2022/04/19 11:28:11;;;;;;;13.13;4.78;;;;;;;;;;5053734;28;20029;-74
2022/04/19 11:30:45;;;;;;;9.98;4.40;;;;;;;;;;5053511;28;20029;-74
2022/04/19 11:33:11;;;;;;;7.25;4.07;;;;;;;;;;5053762;28;20027;-74
2022/04/19 11:35:37;;;;;;;7.82;4.32;;;;;;;;;;5052572;28;20429;-74
2022/04/19 11:38:10;;;;;;;9.52;5.15;;;;;;;;;;5053497;28;20037;-74
2022/04/19 11:49:03;;;;;;;9.70;4.75;;;;;;;;;;5033318;28;20044;-74
2022/04/19 11:51:30;;;;;;;10.93;4.80;;;;;;;;;;5033190;28;20025;-74
2022/04/19 11:53:56;;;;;;;10.43;4.72;;;;;;;;;;5033184;28;20025;-74
2022/04/19 11:56:22;;;;;;;9.43;4.78;;;;;;;;;;5033178;28;20026;-74
2022/04/19 11:58:51;;;;;;;8.32;4.65;;;;;;;;;;5033138;28;20029;-74
2022/04/19 12:01:17;;;;;;;12.60;5.03;;;;;;;;;;5032987;28;20021;-74
2022/04/19 12:03:43;;;;;;;9.07;4.68;;;;;;;;;;5033279;28;20033;-73
2022/04/19 12:06:11;;;;;;;8.63;4.93;;;;;;;;;;5033120;28;20025;-74
2022/04/19 12:08:41;;;;;;;9.20;4.57;;;;;;;;;;5033074;28;20041;-74
2022/04/19 12:11:16;;;;;;;10.40;4.35;;;;;;;;;;5032930;28;20097;-74
2022/04/19 12:13:43;;;;;;;12.40;4.80;;;;;;;;;;5036323;28;20073;-74
2022/04/19 12:16:26;;;;;;;11.40;4.45;;;;;;;;;;5052881;28;20017;-74
2022/04/19 12:18:54;;;;;;;8.52;5.00;;;;;;;;;;5052889;28;20056;-74
2022/04/19 12:21:33;;;;;;;7.20;3.95;;;;;;;;;;5052763;28;20041;-74
2022/04/19 12:23:59;;;;;;;9.52;4.28;;;;;;;;;;5052682;28;20369;-74
2022/04/19 12:26:26;;;;;;;8.20;3.72;;;;;;;;;;5052434;28;20456;-74
2022/04/19 12:28:53;;;;;;;10.20;3.90;;;;;;;;;;5052723;28;20040;-74
2022/04/19 12:31:35;;;;;;;16.02;4.63;;;;;;;;;;5052588;28;20032;-74
2022/04/19 12:34:01;;;;;;;5.70;3.42;;;;;;;;;;5052542;28;20167;-74
2022/04/19 12:36:48;;;;;;;10.05;3.45;;;;;;;;;;5052510;28;20473;-74
2022/04/19 12:39:15;;;;;;;6.57;3.50;;;;;;;;;;5052276;28;20028;-74
2022/04/19 12:41:45;;;;;;;5.55;3.28;;;;;;;;;;5052167;28;20086;-74
2022/04/19 12:44:12;;;;;;;6.22;3.13;;;;;;;;;;5052409;28;20036;-74
2022/04/19 12:46:39;;;;;;;4.82;2.80;;;;;;;;;;5052240;28;20459;-74
2022/04/19 12:49:05;;;;;;;9.18;3.10;;;;;;;;;;5052069;28;20416;-74
2022/04/19 12:51:32;;;;;;;5.43;2.97;;;;;;;;;;5052189;28;20075;-74
2022/04/19 12:54:02;;;;;;;8.85;3.28;;;;;;;;;;5052156;28;20021;-74
2022/04/19 12:56:28;;;;;;;7.65;2.85;;;;;;;;;;5052105;28;20034;-74
2022/04/19 12:58:54;;;;;;;8.02;2.88;;;;;;;;;;5052033;28;20025;-74
2022/04/19 13:01:20;;;;;;;6.43;2.90;;;;;;;;;;5051976;28;20039;-74
2022/04/19 13:03:46;;;;;;;4.70;2.80;;;;;;;;;;5052010;28;20359;-74
2022/04/19 13:14:27;;;;;;;3.95;2.38;;;;;;;;;;5051720;28;20167;-74
2022/04/19 13:16:53;;;;;;;3.97;2.58;;;;;;;;;;5051890;28;20025;-74
2022/04/19 13:19:20;;;;;;;6.78;1.90;;;;;;;;;;5051830;28;20126;-74
2022/04/19 13:21:46;;;;;;;5.47;2.00;;;;;;;;;;5051627;28;20471;-74
2022/04/19 13:24:12;;;;;;;4.63;1.85;;;;;;;;;;5051729;28;20033;-74
2022/04/19 13:26:38;;;;;;;3.28;1.80;;;;;;;;;;5051561;28;20098;-74
2022/04/19 13:29:04;;;;;;;4.72;1.85;;;;;;;;;;5051580;28;20083;-74
2022/04/19 13:31:31;;;;;;;4.10;2.20;;;;;;;;;;5051710;28;20024;-74
2022/04/19 13:33:57;;;;;;;3.63;1.58;;;;;;;;;;5051635;28;20041;-74
2022/04/19 13:36:24;;;;;;;3.47;1.42;;;;;;;;;;5051488;28;20417;-74
2022/04/19 13:38:50;;;;;;;2.28;1.58;;;;;;;;;;5051673;28;20060;-74
2022/04/19 13:41:16;;;;;;;13.05;1.80;;;;;;;;;;5049888;28;20029;-74
2022/04/19 13:43:43;;;;;;;2.40;1.65;;;;;;;;;;5051631;28;20032;-74
2022/04/19 13:46:10;;;;;;;2.45;1.60;;;;;;;;;;5050090;28;20028;-74
2022/04/19 13:48:36;;;;;;;3.28;1.67;;;;;;;;;;5051420;28;20037;-74
2022/04/19 13:51:02;;;;;;;3.55;1.60;;;;;;;;;;5051338;28;20488;-75
2022/04/19 13:53:28;;;;;;;5.43;1.40;;;;;;;;;;5051663;28;20025;-75
2022/04/19 13:55:54;;;;;;;9.20;1.30;;;;;;;;;;5051679;28;20021;-75
2022/04/19 13:58:20;;;;;;;3.03;1.50;;;;;;;;;;5052476;28;20091;-74
2022/04/19 14:00:46;;;;;;;3.55;2.00;;;;;;;;;;5055266;28;20028;-75
2022/04/19 14:03:12;;;;;;;6.50;1.60;;;;;;;;;;5055071;28;20049;-75
2022/04/19 14:05:38;;;;;;;4.65;1.40;;;;;;;;;;5054925;28;20032;-75
2022/04/19 14:08:05;;;;;;;6.95;1.33;;;;;;;;;;5054976;28;20033;-75
2022/04/19 14:10:31;;;;;;;2.42;1.50;;;;;;;;;;5053633;28;20021;-74
2022/04/19 14:12:57;;;;;;;5.95;3.10;;;;;;;;;;5054931;28;20043;-74
2022/04/19 14:15:23;;;;;;;2.80;1.63;;;;;;;;;;5054737;28;20460;-75
2022/04/19 14:17:49;;;;;;;6.53;2.60;;;;;;;;;;5055126;28;20034;-75
2022/04/19 14:20:16;;;;;;;3.00;2.33;;;;;;;;;;5054975;28;20029;-75
2022/04/19 14:22:42;;;;;;;3.88;2.20;;;;;;;;;;5054827;28;20021;-74
2022/04/19 14:25:09;;;;;;;3.58;1.88;;;;;;;;;;5054755;28;20379;-75
2022/04/19 14:27:35;;;;;;;7.30;2.10;;;;;;;;;;5054646;28;20029;-75
2022/04/19 14:35:30;;;;;;;4.13;2.20;;;;;;;;;;5034856;28;20056;-76
2022/04/19 14:37:56;;;;;;;5.28;2.70;;;;;;;;;;5034637;28;20486;-73
2022/04/19 14:40:22;;;;;;;4.82;2.67;;;;;;;;;;5034590;28;20127;-73
2022/04/19 14:42:48;;;;;;;8.50;2.38;;;;;;;;;;5048972;28;20056;-73
2022/04/19 14:45:15;;;;;;;8.65;2.25;;;;;;;;;;5054558;28;20083;-73
2022/04/19 14:47:42;;;;;;;4.35;1.98;;;;;;;;;;5053179;28;20036;-73
2022/04/19 14:50:08;;;;;;;3.85;2.20;;;;;;;;;;5052941;28;20462;-73
2022/04/19 14:52:34;;;;;;;8.65;2.72;;;;;;;;;;5054253;28;20025;-73
2022/04/19 14:55:00;;;;;;;7.32;2.92;;;;;;;;;;5054458;28;20056;-74
2022/04/19 14:57:27;;;;;;;3.53;2.45;;;;;;;;;;5054247;28;20021;-73
2022/04/19 14:59:53;;;;;;;15.05;10.82;;;;;;;;;;5054266;28;20025;-74
2022/04/19 15:02:21;;;;;;;7.75;2.90;;;;;;;;;;5054358;28;20503;-74
2022/04/19 15:04:47;;;;;;;7.43;3.30;;;;;;;;;;5054206;28;20108;-74
2022/04/19 15:07:13;;;;;;;4.97;2.30;;;;;;;;;;5054186;28;20032;-73
2022/04/19 15:09:39;;;;;;;3.60;1.90;;;;;;;;;;5052893;28;20032;-73
2022/04/19 15:12:06;;;;;;;3.75;1.60;;;;;;;;;;5053940;28;20021;-73
2022/04/19 15:14:33;;;;;;;5.28;1.70;;;;;;;;;;5054005;28;20029;-73
2022/04/19 15:16:59;;;;;;;4.32;1.52;;;;;;;;;;5052752;28;20478;-74
2022/04/19 15:19:25;;;;;;;6.20;2.65;;;;;;;;;;5053974;28;20387;-73
2022/04/19 15:21:51;;;;;;;2.83;1.60;;;;;;;;;;5053910;28;20032;-73
2022/04/19 15:24:18;;;;;;;5.13;2.40;;;;;;;;;;5053808;28;20474;-73
2022/04/19 15:26:47;;;;;;;2.63;1.75;;;;;;;;;;5053762;28;20028;-73
2022/04/19 15:29:14;;;;;;;4.85;2.00;;;;;;;;;;5053592;28;20031;-75
2022/04/19 15:31:40;;;;;;;5.88;1.80;;;;;;;;;;5053797;28;20028;-73
2022/04/19 15:34:06;;;;;;;5.07;1.98;;;;;;;;;;5053773;28;20487;-73